sensor_id;sensor_type;location;lat;lon;timestamp;P1;durP1;ratioP1;P2;durP2;ratioP2
71763;SDS011;59602;52.142;5.408;2023-07-16T00:01:54;4.93;;;0.50;;
71763;SDS011;59602;52.142;5.408;2023-07-16T00:04:21;4.90;;;0.50;;
71763;SDS011;59602;52.142;5.408;2023-07-16T00:06:48;4.03;;;0.50;;
71763;SDS011;59602;52.142;5.408;2023-07-16T00:09:15;2.53;;;0.50;;
71763;SDS011;59602;52.142;5.408;2023-07-16T00:11:41;5.20;;;0.50;;
71763;SDS011;59602;52.142;5.408;2023-07-16T00:14:09;5.32;;;0.68;;
71763;SDS011;59602;52.142;5.408;2023-07-16T00:16:40;3.35;;;0.50;;
71763;SDS011;59602;52.142;5.408;2023-07-16T00:19:09;2.15;;;0.47;;
71763;SDS011;59602;52.142;5.408;2023-07-16T00:21:38;2.83;;;0.50;;
71763;SDS011;59602;52.142;5.408;2023-07-16T00:24:04;3.90;;;0.70;;
71763;SDS011;59602;52.142;5.408;2023-07-16T00:26:31;4.90;;;0.77;;
71763;SDS011;59602;52.142;5.408;2023-07-16T00:28:58;4.18;;;0.90;;
71763;SDS011;59602;52.142;5.408;2023-07-16T00:31:25;3.08;;;0.60;;
71763;SDS011;59602;52.142;5.408;2023-07-16T00:33:51;4.00;;;0.67;;
71763;SDS011;59602;52.142;5.408;2023-07-16T00:36:18;3.90;;;0.60;;
71763;SDS011;59602;52.142;5.408;2023-07-16T00:38:45;5.68;;;1.55;;
71763;SDS011;59602;52.142;5.408;2023-07-16T00:41:13;6.85;;;0.65;;
71763;SDS011;59602;52.142;5.408;2023-07-16T00:43:40;5.20;;;0.73;;
71763;SDS011;59602;52.142;5.408;2023-07-16T00:46:08;4.87;;;0.80;;
71763;SDS011;59602;52.142;5.408;2023-07-16T00:48:35;4.90;;;0.80;;
71763;SDS011;59602;52.142;5.408;2023-07-16T00:51:01;6.15;;;1.27;;
71763;SDS011;59602;52.142;5.408;2023-07-16T00:53:30;3.50;;;0.70;;
71763;SDS011;59602;52.142;5.408;2023-07-16T00:55:57;2.95;;;0.68;;
71763;SDS011;59602;52.142;5.408;2023-07-16T00:58:24;5.90;;;0.70;;
71763;SDS011;59602;52.142;5.408;2023-07-16T01:00:52;3.35;;;0.63;;
71763;SDS011;59602;52.142;5.408;2023-07-16T01:03:18;4.88;;;0.75;;
71763;SDS011;59602;52.142;5.408;2023-07-16T01:06:00;3.28;;;0.60;;
71763;SDS011;59602;52.142;5.408;2023-07-16T01:08:38;7.75;;;0.85;;
71763;SDS011;59602;52.142;5.408;2023-07-16T01:11:09;3.83;;;0.70;;
71763;SDS011;59602;52.142;5.408;2023-07-16T01:13:36;4.82;;;0.70;;
71763;SDS011;59602;52.142;5.408;2023-07-16T01:16:03;2.00;;;0.60;;
71763;SDS011;59602;52.142;5.408;2023-07-16T01:18:30;5.22;;;0.75;;
71763;SDS011;59602;52.142;5.408;2023-07-16T01:20:57;4.50;;;1.02;;
71763;SDS011;59602;52.142;5.408;2023-07-16T01:23:26;5.97;;;0.53;;
71763;SDS011;59602;52.142;5.408;2023-07-16T01:26:06;7.15;;;1.13;;
71763;SDS011;59602;52.142;5.408;2023-07-16T01:31:20;7.63;;;1.17;;
71763;SDS011;59602;52.142;5.408;2023-07-16T01:33:49;5.63;;;1.10;;
71763;SDS011;59602;52.142;5.408;2023-07-16T01:36:17;4.97;;;1.00;;
71763;SDS011;59602;52.142;5.408;2023-07-16T01:38:45;6.35;;;1.23;;
71763;SDS011;59602;52.142;5.408;2023-07-16T01:41:12;2.95;;;0.98;;
71763;SDS011;59602;52.142;5.408;2023-07-16T01:43:39;4.13;;;0.82;;
71763;SDS011;59602;52.142;5.408;2023-07-16T01:46:06;4.50;;;1.00;;
71763;SDS011;59602;52.142;5.408;2023-07-16T01:48:33;4.93;;;0.97;;
71763;SDS011;59602;52.142;5.408;2023-07-16T01:51:02;3.88;;;0.90;;
71763;SDS011;59602;52.142;5.408;2023-07-16T01:53:29;6.63;;;1.15;;
71763;SDS011;59602;52.142;5.408;2023-07-16T01:56:00;7.40;;;1.23;;
71763;SDS011;59602;52.142;5.408;2023-07-16T01:58:28;6.80;;;1.02;;
71763;SDS011;59602;52.142;5.408;2023-07-16T02:00:55;5.67;;;1.30;;
71763;SDS011;59602;52.142;5.408;2023-07-16T02:03:21;3.63;;;1.38;;
71763;SDS011;59602;52.142;5.408;2023-07-16T02:05:52;5.22;;;1.17;;
71763;SDS011;59602;52.142;5.408;2023-07-16T02:08:19;4.05;;;1.20;;
71763;SDS011;59602;52.142;5.408;2023-07-16T02:10:47;5.45;;;1.20;;
71763;SDS011;59602;52.142;5.408;2023-07-16T02:13:15;3.93;;;1.10;;
71763;SDS011;59602;52.142;5.408;2023-07-16T02:15:45;6.65;;;1.50;;
71763;SDS011;59602;52.142;5.408;2023-07-16T02:18:14;9.50;;;1.52;;
71763;SDS011;59602;52.142;5.408;2023-07-16T02:20:41;5.05;;;1.38;;
71763;SDS011;59602;52.142;5.408;2023-07-16T02:23:09;6.65;;;1.38;;
71763;SDS011;59602;52.142;5.408;2023-07-16T02:25:36;5.20;;;1.47;;
71763;SDS011;59602;52.142;5.408;2023-07-16T02:28:02;5.80;;;1.35;;
71763;SDS011;59602;52.142;5.408;2023-07-16T02:30:29;4.93;;;1.17;;
71763;SDS011;59602;52.142;5.408;2023-07-16T02:32:56;4.07;;;1.15;;
71763;SDS011;59602;52.142;5.408;2023-07-16T02:35:23;6.05;;;1.40;;
71763;SDS011;59602;52.142;5.408;2023-07-16T02:37:51;6.47;;;1.77;;
71763;SDS011;59602;52.142;5.408;2023-07-16T02:40:20;5.78;;;1.20;;
71763;SDS011;59602;52.142;5.408;2023-07-16T02:42:49;6.50;;;1.50;;
71763;SDS011;59602;52.142;5.408;2023-07-16T02:45:16;5.90;;;1.73;;
71763;SDS011;59602;52.142;5.408;2023-07-16T02:47:43;8.35;;;1.60;;
71763;SDS011;59602;52.142;5.408;2023-07-16T02:50:12;7.70;;;1.50;;
71763;SDS011;59602;52.142;5.408;2023-07-16T02:52:39;4.78;;;1.75;;
71763;SDS011;59602;52.142;5.408;2023-07-16T02:55:05;8.15;;;1.90;;
71763;SDS011;59602;52.142;5.408;2023-07-16T02:57:32;9.10;;;2.05;;
71763;SDS011;59602;52.142;5.408;2023-07-16T02:59:59;6.50;;;1.17;;
71763;SDS011;59602;52.142;5.408;2023-07-16T03:02:26;5.93;;;1.20;;
71763;SDS011;59602;52.142;5.408;2023-07-16T03:05:16;7.18;;;1.13;;
71763;SDS011;59602;52.142;5.408;2023-07-16T03:07:47;7.47;;;1.42;;
71763;SDS011;59602;52.142;5.408;2023-07-16T03:10:13;3.83;;;1.35;;
71763;SDS011;59602;52.142;5.408;2023-07-16T03:12:40;4.55;;;1.13;;
71763;SDS011;59602;52.142;5.408;2023-07-16T03:15:07;10.17;;;1.77;;
71763;SDS011;59602;52.142;5.408;2023-07-16T03:17:34;4.50;;;1.38;;
71763;SDS011;59602;52.142;5.408;2023-07-16T03:20:01;6.28;;;1.55;;
71763;SDS011;59602;52.142;5.408;2023-07-16T03:22:30;5.25;;;1.42;;
71763;SDS011;59602;52.142;5.408;2023-07-16T03:24:57;7.05;;;1.17;;
71763;SDS011;59602;52.142;5.408;2023-07-16T03:27:24;8.93;;;1.50;;
71763;SDS011;59602;52.142;5.408;2023-07-16T03:29:51;5.10;;;0.90;;
71763;SDS011;59602;52.142;5.408;2023-07-16T03:32:17;4.10;;;1.08;;
71763;SDS011;59602;52.142;5.408;2023-07-16T03:34:44;5.13;;;1.20;;
71763;SDS011;59602;52.142;5.408;2023-07-16T03:37:11;5.43;;;1.35;;
71763;SDS011;59602;52.142;5.408;2023-07-16T03:39:37;4.67;;;1.20;;
71763;SDS011;59602;52.142;5.408;2023-07-16T03:42:07;5.07;;;1.10;;
71763;SDS011;59602;52.142;5.408;2023-07-16T03:44:34;5.80;;;1.33;;
71763;SDS011;59602;52.142;5.408;2023-07-16T03:47:01;8.70;;;1.38;;
71763;SDS011;59602;52.142;5.408;2023-07-16T03:49:27;3.58;;;0.95;;
71763;SDS011;59602;52.142;5.408;2023-07-16T03:51:57;5.73;;;1.00;;
71763;SDS011;59602;52.142;5.408;2023-07-16T03:54:24;6.13;;;1.10;;
71763;SDS011;59602;52.142;5.408;2023-07-16T03:56:50;4.90;;;1.10;;
71763;SDS011;59602;52.142;5.408;2023-07-16T03:59:17;6.38;;;1.02;;
71763;SDS011;59602;52.142;5.408;2023-07-16T04:01:44;5.80;;;1.00;;
71763;SDS011;59602;52.142;5.408;2023-07-16T04:04:12;4.87;;;1.00;;
71763;SDS011;59602;52.142;5.408;2023-07-16T04:06:38;4.65;;;1.15;;
71763;SDS011;59602;52.142;5.408;2023-07-16T04:09:08;5.60;;;1.67;;
71763;SDS011;59602;52.142;5.408;2023-07-16T04:11:36;4.40;;;1.05;;
71763;SDS011;59602;52.142;5.408;2023-07-16T04:14:02;4.38;;;1.23;;
71763;SDS011;59602;52.142;5.408;2023-07-16T04:16:29;6.87;;;1.30;;
71763;SDS011;59602;52.142;5.408;2023-07-16T04:18:56;4.30;;;1.35;;
71763;SDS011;59602;52.142;5.408;2023-07-16T04:21:25;6.93;;;1.80;;
71763;SDS011;59602;52.142;5.408;2023-07-16T04:23:52;7.38;;;1.45;;
71763;SDS011;59602;52.142;5.408;2023-07-16T04:26:18;6.68;;;1.92;;
71763;SDS011;59602;52.142;5.408;2023-07-16T04:28:45;5.87;;;1.10;;
71763;SDS011;59602;52.142;5.408;2023-07-16T04:31:11;5.68;;;1.60;;
71763;SDS011;59602;52.142;5.408;2023-07-16T04:33:38;5.22;;;1.40;;
71763;SDS011;59602;52.142;5.408;2023-07-16T04:36:05;5.85;;;1.42;;
71763;SDS011;59602;52.142;5.408;2023-07-16T04:38:33;5.45;;;1.40;;
71763;SDS011;59602;52.142;5.408;2023-07-16T04:41:00;7.20;;;1.93;;
71763;SDS011;59602;52.142;5.408;2023-07-16T04:43:27;5.95;;;1.52;;
71763;SDS011;59602;52.142;5.408;2023-07-16T04:45:57;6.57;;;1.60;;
71763;SDS011;59602;52.142;5.408;2023-07-16T04:48:27;7.45;;;1.58;;
71763;SDS011;59602;52.142;5.408;2023-07-16T04:50:53;6.32;;;1.63;;
71763;SDS011;59602;52.142;5.408;2023-07-16T04:53:23;7.80;;;1.83;;
71763;SDS011;59602;52.142;5.408;2023-07-16T04:55:50;5.07;;;2.00;;
71763;SDS011;59602;52.142;5.408;2023-07-16T04:58:17;7.60;;;2.03;;
71763;SDS011;59602;52.142;5.408;2023-07-16T05:00:43;4.53;;;1.77;;
71763;SDS011;59602;52.142;5.408;2023-07-16T05:03:10;5.35;;;1.92;;
71763;SDS011;59602;52.142;5.408;2023-07-16T05:05:37;4.87;;;1.67;;
71763;SDS011;59602;52.142;5.408;2023-07-16T05:08:03;7.20;;;1.70;;
71763;SDS011;59602;52.142;5.408;2023-07-16T05:10:32;5.10;;;2.38;;
71763;SDS011;59602;52.142;5.408;2023-07-16T05:12:59;8.52;;;1.88;;
71763;SDS011;59602;52.142;5.408;2023-07-16T05:15:26;8.60;;;1.92;;
71763;SDS011;59602;52.142;5.408;2023-07-16T05:17:53;5.43;;;1.53;;
71763;SDS011;59602;52.142;5.408;2023-07-16T05:20:21;3.70;;;1.80;;
71763;SDS011;59602;52.142;5.408;2023-07-16T05:22:47;5.63;;;1.80;;
71763;SDS011;59602;52.142;5.408;2023-07-16T05:25:14;6.70;;;1.80;;
71763;SDS011;59602;52.142;5.408;2023-07-16T05:27:43;5.25;;;1.55;;
71763;SDS011;59602;52.142;5.408;2023-07-16T05:30:10;7.70;;;2.27;;
71763;SDS011;59602;52.142;5.408;2023-07-16T05:32:39;6.45;;;2.20;;
71763;SDS011;59602;52.142;5.408;2023-07-16T05:35:06;5.45;;;1.77;;
71763;SDS011;59602;52.142;5.408;2023-07-16T05:37:33;9.73;;;2.17;;
71763;SDS011;59602;52.142;5.408;2023-07-16T05:40:00;7.68;;;2.38;;
71763;SDS011;59602;52.142;5.408;2023-07-16T05:42:27;6.93;;;1.97;;
71763;SDS011;59602;52.142;5.408;2023-07-16T05:44:54;5.78;;;2.08;;
71763;SDS011;59602;52.142;5.408;2023-07-16T05:47:20;7.68;;;2.15;;
71763;SDS011;59602;52.142;5.408;2023-07-16T05:49:47;5.45;;;2.03;;
71763;SDS011;59602;52.142;5.408;2023-07-16T05:52:16;5.72;;;2.05;;
71763;SDS011;59602;52.142;5.408;2023-07-16T05:54:43;7.40;;;1.90;;
71763;SDS011;59602;52.142;5.408;2023-07-16T05:57:11;5.55;;;2.30;;
71763;SDS011;59602;52.142;5.408;2023-07-16T05:59:38;7.40;;;2.13;;
71763;SDS011;59602;52.142;5.408;2023-07-16T06:02:15;6.97;;;2.17;;
71763;SDS011;59602;52.142;5.408;2023-07-16T06:04:44;5.75;;;2.30;;
71763;SDS011;59602;52.142;5.408;2023-07-16T06:07:12;7.87;;;2.67;;
71763;SDS011;59602;52.142;5.408;2023-07-16T06:09:39;5.60;;;2.00;;
71763;SDS011;59602;52.142;5.408;2023-07-16T06:12:05;5.55;;;2.38;;
71763;SDS011;59602;52.142;5.408;2023-07-16T06:14:32;8.27;;;2.25;;
71763;SDS011;59602;52.142;5.408;2023-07-16T06:16:59;6.82;;;2.45;;
71763;SDS011;59602;52.142;5.408;2023-07-16T06:19:25;7.37;;;2.10;;
71763;SDS011;59602;52.142;5.408;2023-07-16T06:21:52;6.70;;;2.20;;
71763;SDS011;59602;52.142;5.408;2023-07-16T06:24:21;6.82;;;2.10;;
71763;SDS011;59602;52.142;5.408;2023-07-16T06:26:49;6.57;;;2.63;;
71763;SDS011;59602;52.142;5.408;2023-07-16T06:29:15;9.60;;;3.03;;
71763;SDS011;59602;52.142;5.408;2023-07-16T06:31:42;9.20;;;2.27;;
71763;SDS011;59602;52.142;5.408;2023-07-16T06:34:10;8.38;;;2.33;;
71763;SDS011;59602;52.142;5.408;2023-07-16T06:36:37;6.25;;;2.08;;
71763;SDS011;59602;52.142;5.408;2023-07-16T06:41:56;6.68;;;2.60;;
71763;SDS011;59602;52.142;5.408;2023-07-16T06:44:22;7.83;;;2.53;;
71763;SDS011;59602;52.142;5.408;2023-07-16T06:46:50;9.40;;;2.40;;
71763;SDS011;59602;52.142;5.408;2023-07-16T06:49:21;8.90;;;2.50;;
71763;SDS011;59602;52.142;5.408;2023-07-16T06:51:49;7.60;;;2.60;;
71763;SDS011;59602;52.142;5.408;2023-07-16T06:54:17;7.57;;;2.25;;
71763;SDS011;59602;52.142;5.408;2023-07-16T06:56:44;6.00;;;2.57;;
71763;SDS011;59602;52.142;5.408;2023-07-16T06:59:12;5.13;;;2.40;;
71763;SDS011;59602;52.142;5.408;2023-07-16T07:01:42;6.13;;;2.22;;
71763;SDS011;59602;52.142;5.408;2023-07-16T07:04:12;9.07;;;2.60;;
71763;SDS011;59602;52.142;5.408;2023-07-16T07:06:43;5.35;;;2.17;;
71763;SDS011;59602;52.142;5.408;2023-07-16T07:09:12;7.43;;;2.67;;
71763;SDS011;59602;52.142;5.408;2023-07-16T07:11:38;9.63;;;2.67;;
71763;SDS011;59602;52.142;5.408;2023-07-16T07:14:08;8.82;;;2.30;;
71763;SDS011;59602;52.142;5.408;2023-07-16T07:19:10;9.38;;;2.50;;
71763;SDS011;59602;52.142;5.408;2023-07-16T07:21:36;10.37;;;2.50;;
71763;SDS011;59602;52.142;5.408;2023-07-16T07:24:06;6.22;;;2.45;;
71763;SDS011;59602;52.142;5.408;2023-07-16T07:26:36;7.93;;;2.58;;
71763;SDS011;59602;52.142;5.408;2023-07-16T07:29:08;9.13;;;2.85;;
71763;SDS011;59602;52.142;5.408;2023-07-16T07:31:36;5.35;;;2.33;;
71763;SDS011;59602;52.142;5.408;2023-07-16T07:34:04;6.80;;;2.20;;
71763;SDS011;59602;52.142;5.408;2023-07-16T07:36:33;6.22;;;2.22;;
71763;SDS011;59602;52.142;5.408;2023-07-16T07:39:07;8.18;;;2.40;;
71763;SDS011;59602;52.142;5.408;2023-07-16T07:41:55;9.75;;;2.65;;
71763;SDS011;59602;52.142;5.408;2023-07-16T07:44:27;9.60;;;3.40;;
71763;SDS011;59602;52.142;5.408;2023-07-16T07:46:54;7.90;;;2.50;;
71763;SDS011;59602;52.142;5.408;2023-07-16T07:49:22;8.40;;;2.35;;
71763;SDS011;59602;52.142;5.408;2023-07-16T07:51:49;10.88;;;3.20;;
71763;SDS011;59602;52.142;5.408;2023-07-16T07:54:15;8.60;;;2.67;;
71763;SDS011;59602;52.142;5.408;2023-07-16T07:56:45;9.35;;;2.78;;
71763;SDS011;59602;52.142;5.408;2023-07-16T07:59:12;8.87;;;2.20;;
71763;SDS011;59602;52.142;5.408;2023-07-16T08:01:38;6.13;;;2.47;;
71763;SDS011;59602;52.142;5.408;2023-07-16T08:04:05;7.97;;;3.00;;
71763;SDS011;59602;52.142;5.408;2023-07-16T08:06:32;6.97;;;2.38;;
71763;SDS011;59602;52.142;5.408;2023-07-16T08:08:58;9.20;;;2.38;;
71763;SDS011;59602;52.142;5.408;2023-07-16T08:11:25;9.00;;;2.33;;
71763;SDS011;59602;52.142;5.408;2023-07-16T08:13:52;7.32;;;2.65;;
71763;SDS011;59602;52.142;5.408;2023-07-16T08:16:20;7.07;;;2.30;;
71763;SDS011;59602;52.142;5.408;2023-07-16T08:18:46;8.07;;;2.95;;
71763;SDS011;59602;52.142;5.408;2023-07-16T08:21:13;7.05;;;3.15;;
71763;SDS011;59602;52.142;5.408;2023-07-16T08:23:48;5.73;;;2.50;;
71763;SDS011;59602;52.142;5.408;2023-07-16T08:26:16;9.32;;;2.78;;
71763;SDS011;59602;52.142;5.408;2023-07-16T08:28:43;6.10;;;2.50;;
71763;SDS011;59602;52.142;5.408;2023-07-16T08:31:11;7.03;;;2.35;;
71763;SDS011;59602;52.142;5.408;2023-07-16T08:33:39;6.97;;;2.45;;
71763;SDS011;59602;52.142;5.408;2023-07-16T08:36:06;6.70;;;2.60;;
71763;SDS011;59602;52.142;5.408;2023-07-16T08:38:32;8.25;;;2.95;;
71763;SDS011;59602;52.142;5.408;2023-07-16T08:40:59;6.05;;;2.42;;
71763;SDS011;59602;52.142;5.408;2023-07-16T08:43:28;7.07;;;2.60;;
71763;SDS011;59602;52.142;5.408;2023-07-16T08:45:55;7.88;;;2.88;;
71763;SDS011;59602;52.142;5.408;2023-07-16T08:48:22;7.03;;;2.50;;
71763;SDS011;59602;52.142;5.408;2023-07-16T08:50:49;8.70;;;2.63;;
71763;SDS011;59602;52.142;5.408;2023-07-16T08:53:16;5.53;;;2.88;;
71763;SDS011;59602;52.142;5.408;2023-07-16T08:55:44;8.93;;;2.67;;
71763;SDS011;59602;52.142;5.408;2023-07-16T08:58:14;9.40;;;2.75;;
71763;SDS011;59602;52.142;5.408;2023-07-16T09:00:42;7.90;;;2.80;;
71763;SDS011;59602;52.142;5.408;2023-07-16T09:03:11;6.78;;;2.75;;
71763;SDS011;59602;52.142;5.408;2023-07-16T09:05:40;6.80;;;2.38;;
71763;SDS011;59602;52.142;5.408;2023-07-16T09:08:07;7.13;;;2.50;;
71763;SDS011;59602;52.142;5.408;2023-07-16T09:10:35;7.03;;;2.85;;
71763;SDS011;59602;52.142;5.408;2023-07-16T09:13:02;6.67;;;2.67;;
71763;SDS011;59602;52.142;5.408;2023-07-16T09:15:29;6.88;;;2.30;;
71763;SDS011;59602;52.142;5.408;2023-07-16T09:17:56;8.13;;;3.00;;
71763;SDS011;59602;52.142;5.408;2023-07-16T09:20:23;6.78;;;2.72;;
71763;SDS011;59602;52.142;5.408;2023-07-16T09:22:54;8.10;;;3.42;;
71763;SDS011;59602;52.142;5.408;2023-07-16T09:25:25;6.80;;;2.83;;
71763;SDS011;59602;52.142;5.408;2023-07-16T09:27:53;7.57;;;3.10;;
71763;SDS011;59602;52.142;5.408;2023-07-16T09:30:20;5.15;;;2.72;;
71763;SDS011;59602;52.142;5.408;2023-07-16T09:32:46;8.05;;;2.78;;
71763;SDS011;59602;52.142;5.408;2023-07-16T09:35:14;6.75;;;2.80;;
71763;SDS011;59602;52.142;5.408;2023-07-16T09:37:42;8.60;;;2.67;;
71763;SDS011;59602;52.142;5.408;2023-07-16T09:40:10;8.05;;;2.80;;
71763;SDS011;59602;52.142;5.408;2023-07-16T09:42:38;7.13;;;2.88;;
71763;SDS011;59602;52.142;5.408;2023-07-16T09:45:06;7.43;;;2.92;;
71763;SDS011;59602;52.142;5.408;2023-07-16T09:47:34;6.50;;;2.50;;
71763;SDS011;59602;52.142;5.408;2023-07-16T09:50:02;7.83;;;2.50;;
71763;SDS011;59602;52.142;5.408;2023-07-16T09:52:31;6.20;;;2.45;;
71763;SDS011;59602;52.142;5.408;2023-07-16T09:55:00;8.88;;;3.00;;
71763;SDS011;59602;52.142;5.408;2023-07-16T09:57:30;4.68;;;2.20;;
71763;SDS011;59602;52.142;5.408;2023-07-16T10:00:02;7.25;;;2.55;;
71763;SDS011;59602;52.142;5.408;2023-07-16T10:02:33;8.87;;;2.60;;
71763;SDS011;59602;52.142;5.408;2023-07-16T10:05:11;6.93;;;2.40;;
71763;SDS011;59602;52.142;5.408;2023-07-16T10:07:39;6.68;;;2.33;;
71763;SDS011;59602;52.142;5.408;2023-07-16T10:10:07;7.78;;;2.53;;
71763;SDS011;59602;52.142;5.408;2023-07-16T10:12:36;4.63;;;2.40;;
71763;SDS011;59602;52.142;5.408;2023-07-16T10:15:04;6.13;;;2.50;;
71763;SDS011;59602;52.142;5.408;2023-07-16T10:17:32;6.13;;;2.72;;
71763;SDS011;59602;52.142;5.408;2023-07-16T10:22:41;7.38;;;2.60;;
71763;SDS011;59602;52.142;5.408;2023-07-16T10:25:10;7.07;;;2.85;;
71763;SDS011;59602;52.142;5.408;2023-07-16T10:27:53;6.20;;;2.70;;
71763;SDS011;59602;52.142;5.408;2023-07-16T10:30:20;6.20;;;2.40;;
71763;SDS011;59602;52.142;5.408;2023-07-16T10:32:47;5.90;;;2.38;;
71763;SDS011;59602;52.142;5.408;2023-07-16T10:35:16;5.43;;;2.40;;
71763;SDS011;59602;52.142;5.408;2023-07-16T10:37:43;5.35;;;2.17;;
71763;SDS011;59602;52.142;5.408;2023-07-16T10:40:12;7.87;;;2.40;;
71763;SDS011;59602;52.142;5.408;2023-07-16T10:42:41;7.25;;;2.38;;
71763;SDS011;59602;52.142;5.408;2023-07-16T10:45:10;8.27;;;2.60;;
71763;SDS011;59602;52.142;5.408;2023-07-16T10:47:37;9.68;;;2.38;;
71763;SDS011;59602;52.142;5.408;2023-07-16T10:50:07;6.35;;;2.22;;
71763;SDS011;59602;52.142;5.408;2023-07-16T10:52:36;4.80;;;2.10;;
71763;SDS011;59602;52.142;5.408;2023-07-16T10:55:04;7.20;;;2.22;;
71763;SDS011;59602;52.142;5.408;2023-07-16T10:57:31;8.40;;;2.55;;
71763;SDS011;59602;52.142;5.408;2023-07-16T10:59:58;5.35;;;2.05;;
71763;SDS011;59602;52.142;5.408;2023-07-16T11:02:26;7.13;;;2.47;;
71763;SDS011;59602;52.142;5.408;2023-07-16T11:04:54;4.57;;;2.50;;
71763;SDS011;59602;52.142;5.408;2023-07-16T11:07:26;5.57;;;2.30;;
71763;SDS011;59602;52.142;5.408;2023-07-16T11:09:53;6.50;;;2.42;;
71763;SDS011;59602;52.142;5.408;2023-07-16T11:12:21;4.80;;;2.13;;
71763;SDS011;59602;52.142;5.408;2023-07-16T11:14:53;8.05;;;2.20;;
71763;SDS011;59602;52.142;5.408;2023-07-16T11:17:22;5.97;;;2.37;;
71763;SDS011;59602;52.142;5.408;2023-07-16T11:19:51;6.55;;;2.05;;
71763;SDS011;59602;52.142;5.408;2023-07-16T11:22:19;5.35;;;2.55;;
71763;SDS011;59602;52.142;5.408;2023-07-16T11:24:46;4.80;;;2.45;;
71763;SDS011;59602;52.142;5.408;2023-07-16T11:27:16;6.32;;;2.47;;
71763;SDS011;59602;52.142;5.408;2023-07-16T11:29:47;4.80;;;2.03;;
71763;SDS011;59602;52.142;5.408;2023-07-16T11:32:32;5.95;;;2.17;;
71763;SDS011;59602;52.142;5.408;2023-07-16T11:35:02;5.00;;;1.90;;
71763;SDS011;59602;52.142;5.408;2023-07-16T11:37:30;6.75;;;2.15;;
71763;SDS011;59602;52.142;5.408;2023-07-16T11:40:00;4.88;;;2.10;;
71763;SDS011;59602;52.142;5.408;2023-07-16T11:42:30;5.50;;;2.23;;
71763;SDS011;59602;52.142;5.408;2023-07-16T11:45:00;6.45;;;2.58;;
71763;SDS011;59602;52.142;5.408;2023-07-16T11:47:28;4.90;;;2.33;;
71763;SDS011;59602;52.142;5.408;2023-07-16T11:49:56;7.22;;;1.75;;
71763;SDS011;59602;52.142;5.408;2023-07-16T11:52:24;6.72;;;2.05;;
71763;SDS011;59602;52.142;5.408;2023-07-16T11:54:53;6.63;;;1.90;;
71763;SDS011;59602;52.142;5.408;2023-07-16T11:57:22;6.18;;;1.60;;
71763;SDS011;59602;52.142;5.408;2023-07-16T11:59:49;4.35;;;1.17;;
71763;SDS011;59602;52.142;5.408;2023-07-16T12:02:16;3.15;;;0.90;;
71763;SDS011;59602;52.142;5.408;2023-07-16T12:04:43;3.83;;;0.82;;
71763;SDS011;59602;52.142;5.408;2023-07-16T12:07:09;4.47;;;0.50;;
71763;SDS011;59602;52.142;5.408;2023-07-16T12:09:36;3.28;;;0.80;;
71763;SDS011;59602;52.142;5.408;2023-07-16T12:12:03;6.03;;;0.90;;
71763;SDS011;59602;52.142;5.408;2023-07-16T12:14:30;9.68;;;0.90;;
71763;SDS011;59602;52.142;5.408;2023-07-16T12:16:57;3.55;;;1.02;;
71763;SDS011;59602;52.142;5.408;2023-07-16T12:19:24;2.90;;;0.70;;
71763;SDS011;59602;52.142;5.408;2023-07-16T12:21:51;3.17;;;1.02;;
71763;SDS011;59602;52.142;5.408;2023-07-16T12:24:19;4.03;;;0.77;;
71763;SDS011;59602;52.142;5.408;2023-07-16T12:26:46;3.58;;;0.77;;
71763;SDS011;59602;52.142;5.408;2023-07-16T12:29:13;2.70;;;0.65;;
71763;SDS011;59602;52.142;5.408;2023-07-16T12:31:39;3.40;;;0.80;;
71763;SDS011;59602;52.142;5.408;2023-07-16T12:34:06;2.05;;;0.60;;
71763;SDS011;59602;52.142;5.408;2023-07-16T12:36:33;2.47;;;0.82;;
71763;SDS011;59602;52.142;5.408;2023-07-16T12:38:59;4.07;;;0.85;;
71763;SDS011;59602;52.142;5.408;2023-07-16T12:49:26;5.93;;;0.65;;
71763;SDS011;59602;52.142;5.408;2023-07-16T12:52:12;4.15;;;0.60;;
71763;SDS011;59602;52.142;5.408;2023-07-16T13:03:51;3.28;;;0.60;;
71763;SDS011;59602;52.142;5.408;2023-07-16T13:06:51;4.65;;;0.80;;
71763;SDS011;59602;52.142;5.408;2023-07-16T13:10:07;3.75;;;0.80;;
71763;SDS011;59602;52.142;5.408;2023-07-16T13:12:51;5.80;;;0.90;;
71763;SDS011;59602;52.142;5.408;2023-07-16T13:15:32;3.90;;;0.70;;
71763;SDS011;59602;52.142;5.408;2023-07-16T13:18:45;3.67;;;0.63;;
71763;SDS011;59602;52.142;5.408;2023-07-16T13:21:14;2.50;;;0.55;;
71763;SDS011;59602;52.142;5.408;2023-07-16T13:23:41;3.33;;;0.52;;
71763;SDS011;59602;52.142;5.408;2023-07-16T13:26:41;5.72;;;0.70;;
71763;SDS011;59602;52.142;5.408;2023-07-16T13:29:40;5.30;;;0.63;;
71763;SDS011;59602;52.142;5.408;2023-07-16T13:32:28;3.10;;;0.30;;
71763;SDS011;59602;52.142;5.408;2023-07-16T13:34:59;4.45;;;0.50;;
71763;SDS011;59602;52.142;5.408;2023-07-16T13:37:36;4.28;;;0.93;;
71763;SDS011;59602;52.142;5.408;2023-07-16T13:40:46;3.25;;;0.50;;
71763;SDS011;59602;52.142;5.408;2023-07-16T13:43:16;1.87;;;0.50;;
71763;SDS011;59602;52.142;5.408;2023-07-16T13:45:48;1.95;;;0.40;;
71763;SDS011;59602;52.142;5.408;2023-07-16T13:48:18;3.35;;;0.50;;
71763;SDS011;59602;52.142;5.408;2023-07-16T13:51:01;5.40;;;0.60;;
71763;SDS011;59602;52.142;5.408;2023-07-16T13:53:32;3.30;;;0.50;;
71763;SDS011;59602;52.142;5.408;2023-07-16T13:56:20;4.07;;;0.50;;
71763;SDS011;59602;52.142;5.408;2023-07-16T13:59:47;3.03;;;0.40;;
71763;SDS011;59602;52.142;5.408;2023-07-16T14:02:16;3.05;;;0.50;;
71763;SDS011;59602;52.142;5.408;2023-07-16T14:05:20;3.35;;;0.30;;
71763;SDS011;59602;52.142;5.408;2023-07-16T14:07:52;6.57;;;0.63;;
71763;SDS011;59602;52.142;5.408;2023-07-16T14:13:51;2.40;;;0.38;;
71763;SDS011;59602;52.142;5.408;2023-07-16T14:24:22;2.90;;;0.47;;
71763;SDS011;59602;52.142;5.408;2023-07-16T14:26:54;3.17;;;0.30;;
71763;SDS011;59602;52.142;5.408;2023-07-16T14:30:08;5.47;;;0.50;;
71763;SDS011;59602;52.142;5.408;2023-07-16T14:33:02;4.47;;;0.40;;
71763;SDS011;59602;52.142;5.408;2023-07-16T14:36:15;2.58;;;0.40;;
71763;SDS011;59602;52.142;5.408;2023-07-16T14:38:46;2.90;;;0.45;;
71763;SDS011;59602;52.142;5.408;2023-07-16T14:41:18;3.73;;;0.57;;
71763;SDS011;59602;52.142;5.408;2023-07-16T14:43:45;3.65;;;0.40;;
71763;SDS011;59602;52.142;5.408;2023-07-16T14:50:09;5.80;;;0.50;;
71763;SDS011;59602;52.142;5.408;2023-07-16T14:52:36;4.15;;;0.70;;
71763;SDS011;59602;52.142;5.408;2023-07-16T14:55:39;2.10;;;0.50;;
71763;SDS011;59602;52.142;5.408;2023-07-16T14:58:33;3.75;;;0.57;;
71763;SDS011;59602;52.142;5.408;2023-07-16T15:01:07;3.72;;;0.60;;
71763;SDS011;59602;52.142;5.408;2023-07-16T15:03:37;5.45;;;0.80;;
71763;SDS011;59602;52.142;5.408;2023-07-16T15:06:23;3.80;;;0.70;;
71763;SDS011;59602;52.142;5.408;2023-07-16T15:09:07;7.63;;;4.47;;
71763;SDS011;59602;52.142;5.408;2023-07-16T15:12:00;4.43;;;0.70;;
71763;SDS011;59602;52.142;5.408;2023-07-16T15:14:27;7.47;;;1.10;;
71763;SDS011;59602;52.142;5.408;2023-07-16T15:16:58;4.30;;;1.00;;
71763;SDS011;59602;52.142;5.408;2023-07-16T15:19:46;3.30;;;1.02;;
71763;SDS011;59602;52.142;5.408;2023-07-16T15:22:16;3.17;;;0.63;;
71763;SDS011;59602;52.142;5.408;2023-07-16T15:25:06;2.65;;;0.60;;
71763;SDS011;59602;52.142;5.408;2023-07-16T15:29:36;3.30;;;0.77;;
71763;SDS011;59602;52.142;5.408;2023-07-16T15:32:22;2.45;;;0.80;;
71763;SDS011;59602;52.142;5.408;2023-07-16T15:35:29;2.75;;;0.60;;
71763;SDS011;59602;52.142;5.408;2023-07-16T15:37:57;2.53;;;0.53;;
71763;SDS011;59602;52.142;5.408;2023-07-16T15:41:09;4.85;;;0.60;;
71763;SDS011;59602;52.142;5.408;2023-07-16T15:50:10;2.95;;;0.55;;
71763;SDS011;59602;52.142;5.408;2023-07-16T15:55:32;2.75;;;0.60;;
71763;SDS011;59602;52.142;5.408;2023-07-16T15:58:01;5.78;;;0.93;;
71763;SDS011;59602;52.142;5.408;2023-07-16T16:00:45;2.67;;;0.30;;
71763;SDS011;59602;52.142;5.408;2023-07-16T16:03:54;2.65;;;0.35;;